Garden, MI (49835)

3:15 AM EDT on September 05, 2015 (GMT -0400)
HADS | | Change Station
CLOSE
Current Station
Personal Weather Station
Location: Garden, MI
Elevation: 605 ft
Nearby Weather Stations

Elev 605 ft 45.62 °N, 86.66 °W | Updated 35 minutes ago

Mostly Cloudy
Mostly Cloudy
68.0 °F
Feels Like 68.0 °F
N
6.0
Wind Variable Wind from ENE
Gusts 7.0 mph

Today
High -- | Low -- °F
--% Chance of Precip.
Yesterday
High -- | Low -- °F
Precip. -- in
7:12 AM 8:17 PM
Waning Gibbous, 51% visible
Pressure 30.05 in
Visibility 6.0 miles
Clouds Overcast 700 ft
Dew Point Not available.
Humidity Not available.
Rainfall in
Snow Depth Not available.
UV 0 out of 12
Pollen 9.70 out of 12
Air Quality Not available.
Flu Activity Not available.
METAR KESC 050655Z AUTO 35003KT 6SM OVC007 19/18 A3005 RMK AO1
Pressure 30.05 in
Visibility 6.0 miles
Clouds Overcast 700 ft
Dew Point Not available.
Humidity Not available.
Rainfall in
Snow Depth Not available.
UV 0 out of 12
Pollen 9.70 out of 12
Air Quality Not available.
Flu Activity Not available.
METAR KESC 050655Z AUTO 35003KT 6SM OVC007 19/18 A3005 RMK AO1

10-Day Weather Forecast

×

Almanac

Astronomy

Sep. 05, 2015 Rise Set
Actual Time
Civil Twilight
Nautical Twilight
Astronomical Twilight
Moon
Length of Visible Light
Length of Day
Tomorrow will be .
, % of the Moon is Illuminated

Today's Extremes

State Highs State Lows

Community

WunderPhotos

Upload Photos

1,852,430 photos uploaded!

WunderBlogs® & News

Nearby

Air Quality

  Air Quality AQ Index Pollutant
Not available.

Snow Depth

Station Depth Elevation

Earthquake Activity

City Distance Mag. Time & Date
Minimum magnitude displayed is 2.5.

Coastal Water Temperatures

Place Temperature

Stations

Nearby Weather Stations

Station Location Temp. Windchill Dew Point Humidity Wind Precip. Elev Updated Type